Time;durP1;ratioP1;P1;durP2;ratioP2;P2;SDS_P1;SDS_P2;PMS_P1;PMS_P2;Temp;Humidity;BMP_temperature;BMP_pressure;BME280_temperature;BME280_humidity;BME280_pressure;Samples;Min_cycle;Max_cycle;Signal;HPM_P1;HPM_P2
2023/11/03 00:00:04;;;;;;;1.67;0.40;;;;;;;6.91;60.23;99094.25;5045277;28;20085;-40
2023/11/03 00:02:32;;;;;;;0.77;0.30;;;;;;;6.89;59.99;99088.31;5037991;28;20048;-40
2023/11/03 00:05:01;;;;;;;0.40;0.40;;;;;;;6.89;60.27;99087.44;5035406;28;20045;-39
2023/11/03 00:07:33;;;;;;;0.60;0.40;;;;;;;6.88;60.17;99084.00;5033907;28;20041;-40
2023/11/03 00:10:00;;;;;;;0.32;0.30;;;;;;;6.88;59.94;99094.34;5037287;28;20128;-39
2023/11/03 00:12:27;;;;;;;0.57;0.30;;;;;;;6.80;60.08;99083.41;5031890;28;20037;-40
2023/11/03 00:14:53;;;;;;;1.48;0.43;;;;;;;6.85;60.28;99091.88;5036408;28;20064;-41
2023/11/03 00:17:19;;;;;;;0.60;0.30;;;;;;;6.85;59.96;99099.63;5035630;28;20044;-38
2023/11/03 00:19:46;;;;;;;0.88;0.50;;;;;;;6.87;59.84;99097.81;5049168;28;20059;-40
2023/11/03 00:22:13;;;;;;;0.82;0.30;;;;;;;6.86;59.46;99101.28;5032811;28;20052;-41
2023/11/03 00:24:40;;;;;;;0.77;0.40;;;;;;;6.83;59.44;99093.63;5034687;28;20041;-40
2023/11/03 00:27:07;;;;;;;0.30;0.30;;;;;;;6.79;59.46;99100.63;5035919;28;20076;-40
2023/11/03 00:29:33;;;;;;;0.40;0.30;;;;;;;6.80;59.51;99106.66;5043253;28;20040;-40
2023/11/03 00:32:00;;;;;;;1.75;0.30;;;;;;;6.81;59.47;99116.06;5049754;28;20038;-39
2023/11/03 00:34:26;;;;;;;0.40;0.30;;;;;;;6.78;59.68;99122.19;5034889;28;20092;-40
2023/11/03 00:36:52;;;;;;;0.55;0.30;;;;;;;6.77;59.75;99128.25;5034922;28;20041;-39
2023/11/03 00:39:21;;;;;;;0.40;0.38;;;;;;;6.81;59.97;99124.69;5049833;28;20049;-40
2023/11/03 00:41:49;;;;;;;0.45;0.30;;;;;;;6.83;59.78;99132.41;5042389;28;20127;-40
2023/11/03 00:44:17;;;;;;;0.95;0.20;;;;;;;6.60;59.83;99096.84;5049610;28;20062;-40
2023/11/03 00:46:44;;;;;;;2.72;0.55;;;;;;;6.83;59.58;99134.97;5043486;28;20531;-40
2023/11/03 00:49:12;;;;;;;1.95;0.40;;;;;;;6.85;59.62;99134.94;5034001;28;20037;-40
2023/11/03 00:51:39;;;;;;;0.80;0.35;;;;;;;6.82;59.51;99133.28;5017227;28;20120;-40
2023/11/03 00:54:06;;;;;;;0.30;0.25;;;;;;;6.80;59.62;99130.72;5034008;28;20041;-39
2023/11/03 00:56:33;;;;;;;0.90;0.43;;;;;;;6.79;59.25;99130.78;5033982;28;20044;-39
2023/11/03 00:59:00;;;;;;;0.47;0.32;;;;;;;6.77;59.79;99135.16;5052200;28;20041;-40
2023/11/03 01:01:26;;;;;;;0.95;0.40;;;;;;;6.72;59.31;99130.09;5034821;28;20045;-39
2023/11/03 01:03:55;;;;;;;0.50;0.40;;;;;;;6.78;59.56;99142.00;5030779;28;20425;-38
2023/11/03 01:06:24;;;;;;;0.40;0.20;;;;;;;6.58;59.61;99116.72;5053097;28;20517;-39
2023/11/03 01:08:53;;;;;;;0.68;0.40;;;;;;;6.82;59.28;99149.63;5034059;28;20132;-40
2023/11/03 01:11:20;;;;;;;1.67;0.55;;;;;;;6.85;59.65;99148.72;5032617;28;20033;-40
2023/11/03 01:13:46;;;;;;;2.70;0.75;;;;;;;6.84;59.49;99157.34;5036636;28;20087;-39
2023/11/03 01:16:13;;;;;;;0.50;0.40;;;;;;;6.82;59.96;99159.09;5049245;28;20037;-39
2023/11/03 01:18:39;;;;;;;1.48;0.43;;;;;;;6.86;59.94;99159.88;5029486;28;20528;-40
2023/11/03 01:21:12;;;;;;;0.50;0.30;;;;;;;6.88;59.79;99160.69;5048245;28;20096;-39
2023/11/03 01:23:42;;;;;;;0.70;0.40;;;;;;;6.88;59.64;99169.28;5047249;28;20045;-38
2023/11/03 01:26:09;;;;;;;1.73;0.30;;;;;;;6.64;59.88;99126.91;5049221;28;20041;-39
2023/11/03 01:28:36;;;;;;;1.52;0.40;;;;;;;6.87;59.75;99161.56;5051322;28;20041;-39
2023/11/03 01:31:07;;;;;;;3.90;0.60;;;;;;;6.55;59.63;99100.47;5031161;28;20037;-39
2023/11/03 01:33:36;;;;;;;1.05;0.60;;;;;;;6.75;59.48;99155.03;5015543;28;20041;-40
2023/11/03 01:36:04;;;;;;;0.63;0.52;;;;;;;6.77;59.92;99159.25;5034298;28;20040;-38
2023/11/03 01:38:35;;;;;;;1.92;0.43;;;;;;;6.81;60.13;99163.44;5034598;28;20056;-40
2023/11/03 01:41:02;;;;;;;0.82;0.60;;;;;;;6.84;59.81;99161.66;5032999;28;20044;-39
2023/11/03 01:43:32;;;;;;;0.68;0.47;;;;;;;6.85;60.08;99153.03;5034754;28;20041;-40
2023/11/03 01:45:59;;;;;;;1.05;0.68;;;;;;;6.71;59.78;99135.31;5036471;28;20048;-39
2023/11/03 01:48:29;;;;;;;2.25;0.60;;;;;;;6.87;59.94;99154.66;5049612;28;20508;-40
2023/11/03 01:50:57;;;;;;;2.33;0.55;;;;;;;6.92;60.19;99159.69;5049858;28;20056;-40
2023/11/03 01:53:23;;;;;;;1.20;0.90;;;;;;;6.91;60.13;99169.19;5047850;28;20045;-39
2023/11/03 01:55:51;;;;;;;1.25;0.68;;;;;;;6.89;59.87;99175.31;5031341;28;20323;-38
2023/11/03 01:58:16;;;;;;;1.05;0.50;;;;;;;6.82;60.12;99179.78;5031577;28;20037;-38
2023/11/03 02:00:42;;;;;;;1.38;0.63;;;;;;;6.76;59.74;99162.72;5045429;28;20067;-40
2023/11/03 02:03:08;;;;;;;1.42;0.40;;;;;;;6.64;59.98;99151.88;5031436;28;20037;-39
2023/11/03 02:05:34;;;;;;;1.10;0.50;;;;;;;6.80;60.20;99184.16;5014237;28;20040;-39
2023/11/03 02:08:00;;;;;;;1.17;0.80;;;;;;;6.75;59.69;99184.25;5030764;28;20068;-41
2023/11/03 02:10:27;;;;;;;1.58;0.90;;;;;;;6.74;60.14;99182.59;5033558;28;20045;-39
2023/11/03 02:12:53;;;;;;;0.65;0.57;;;;;;;6.73;59.83;99177.44;5055711;28;20057;-40
2023/11/03 02:15:19;;;;;;;2.08;0.60;;;;;;;6.62;59.47;99185.50;5029714;28;20041;-41
2023/11/03 02:17:46;;;;;;;1.50;0.70;;;;;;;6.42;59.49;99189.47;5033300;28;20037;-39
2023/11/03 02:20:12;;;;;;;1.73;0.50;;;;;;;6.18;59.57;99189.19;5031997;28;20489;-40
2023/11/03 02:22:38;;;;;;;2.05;0.68;;;;;;;6.14;60.17;99186.72;5032634;28;20045;-40
2023/11/03 02:25:04;;;;;;;1.85;0.60;;;;;;;6.11;60.30;99184.22;5033185;28;20040;-39
2023/11/03 02:27:31;;;;;;;0.40;0.40;;;;;;;6.16;60.40;99193.56;5033774;28;20131;-39
2023/11/03 02:29:58;;;;;;;0.63;0.50;;;;;;;6.14;59.78;99182.41;5029709;28;20142;-38
2023/11/03 02:32:25;;;;;;;1.52;0.60;;;;;;;6.33;60.12;99195.72;5046726;28;20513;-40
2023/11/03 02:34:51;;;;;;;1.25;0.52;;;;;;;6.42;59.83;99199.81;5030835;28;20635;-40
2023/11/03 02:37:17;;;;;;;2.58;0.60;;;;;;;6.51;59.73;99202.13;5032299;28;20060;-39
2023/11/03 02:39:47;;;;;;;1.08;0.55;;;;;;;6.45;59.75;99204.88;5033169;28;20077;-40
2023/11/03 02:42:15;;;;;;;2.30;0.60;;;;;;;6.50;59.89;99208.19;5048534;28;20036;-39
2023/11/03 02:44:41;;;;;;;1.48;0.85;;;;;;;6.54;59.83;99202.91;5032230;28;20041;-40
2023/11/03 02:47:08;;;;;;;2.08;1.27;;;;;;;6.57;59.56;99210.59;5048234;28;20415;-39
2023/11/03 02:49:34;;;;;;;1.65;0.63;;;;;;;6.58;60.08;99212.28;5048842;28;20063;-40
2023/11/03 02:52:00;;;;;;;2.45;0.70;;;;;;;6.55;60.12;99203.75;5031063;28;20037;-38
2023/11/03 02:54:26;;;;;;;1.50;0.68;;;;;;;6.21;59.65;99204.63;5033312;28;20063;-39
2023/11/03 02:56:52;;;;;;;0.82;0.70;;;;;;;6.13;60.16;99216.00;5031308;28;20045;-39
2023/11/03 02:59:19;;;;;;;3.13;0.77;;;;;;;6.01;60.25;99208.56;5047834;28;20468;-40
2023/11/03 03:01:46;;;;;;;1.48;0.82;;;;;;;5.85;60.76;99210.63;5031050;28;20052;-39
2023/11/03 03:04:12;;;;;;;1.00;0.70;;;;;;;5.70;60.78;99213.53;5032039;28;20475;-40
2023/11/03 03:06:39;;;;;;;1.38;0.90;;;;;;;5.61;61.16;99216.31;5050212;28;20053;-39
2023/11/03 03:09:05;;;;;;;1.25;0.80;;;;;;;5.72;61.17;99217.78;5032036;28;20064;-38
2023/11/03 03:11:30;;;;;;;0.95;0.80;;;;;;;5.82;61.11;99220.97;5032257;28;20453;-39
2023/11/03 03:13:56;;;;;;;1.15;1.00;;;;;;;5.91;61.29;99228.56;5030683;28;20472;-39
2023/11/03 03:16:24;;;;;;;1.55;0.90;;;;;;;5.77;60.69;99233.13;5028456;28;20140;-41
2023/11/03 03:18:50;;;;;;;2.08;1.13;;;;;;;5.72;61.68;99235.81;5044808;28;20128;-39
2023/11/03 03:21:19;;;;;;;2.22;0.90;;;;;;;5.68;61.33;99225.59;5047214;28;20576;-40
2023/11/03 03:23:45;;;;;;;4.65;1.30;;;;;;;5.65;61.70;99238.59;5045188;28;20151;-39
2023/11/03 03:26:11;;;;;;;1.00;0.88;;;;;;;5.51;61.89;99244.88;5030891;28;20472;-40
2023/11/03 03:28:37;;;;;;;1.70;0.90;;;;;;;5.32;62.67;99240.97;5036482;28;20042;-40
2023/11/03 03:31:03;;;;;;;13.02;1.35;;;;;;;5.19;62.70;99246.38;5034770;28;20041;-39
2023/11/03 03:33:29;;;;;;;6.30;1.00;;;;;;;5.12;63.30;99245.69;5046921;28;20041;-39
2023/11/03 03:35:55;;;;;;;1.23;0.60;;;;;;;5.08;63.67;99264.63;5028807;28;20098;-40
2023/11/03 03:38:21;;;;;;;1.50;0.90;;;;;;;4.92;63.54;99258.91;5048019;28;20409;-39
2023/11/03 03:40:47;;;;;;;0.90;0.75;;;;;;;4.83;63.78;99253.94;5046616;28;20049;-40
2023/11/03 03:43:12;;;;;;;2.88;1.10;;;;;;;4.76;64.10;99248.94;5030410;28;20037;-40
2023/11/03 03:45:38;;;;;;;2.90;1.10;;;;;;;4.84;64.20;99254.78;5030569;28;20520;-39
2023/11/03 03:48:24;;;;;;;1.50;0.75;;;;;;;4.86;63.62;99253.06;5031921;28;20834;-40
2023/11/03 03:50:50;;;;;;;1.40;1.25;;;;;;;4.92;63.67;99256.34;5032538;28;20041;-39
2023/11/03 03:53:16;;;;;;;1.20;0.90;;;;;;;4.92;64.07;99251.19;5047486;28;20056;-40
2023/11/03 03:55:42;;;;;;;1.30;0.80;;;;;;;4.91;63.70;99258.97;5030500;28;20123;-40
2023/11/03 03:58:08;;;;;;;1.17;1.00;;;;;;;4.95;63.92;99273.47;5032469;28;20509;-40
2023/11/03 04:00:34;;;;;;;1.02;0.80;;;;;;;4.90;64.67;99277.88;5027321;28;20893;-39
2023/11/03 04:03:00;;;;;;;1.30;0.90;;;;;;;4.92;64.36;99279.53;5047338;28;20120;-40
2023/11/03 04:05:26;;;;;;;1.75;0.95;;;;;;;4.90;64.54;99286.44;5045649;28;20553;-40
2023/11/03 04:07:52;;;;;;;1.40;0.85;;;;;;;4.79;64.89;99280.63;5028661;28;20045;-40
2023/11/03 04:10:17;;;;;;;1.40;1.00;;;;;;;4.60;65.18;99259.53;5031343;28;20182;-41
2023/11/03 04:12:45;;;;;;;1.17;0.70;;;;;;;4.74;65.55;99295.31;5031231;28;20034;-38
2023/11/03 04:15:10;;;;;;;1.92;1.00;;;;;;;4.47;66.17;99263.16;5029635;28;20045;-40
2023/11/03 04:17:36;;;;;;;3.67;1.20;;;;;;;4.64;66.14;99307.50;5031214;28;20045;-40
2023/11/03 04:20:04;;;;;;;1.80;0.90;;;;;;;4.63;66.66;99305.78;5030945;28;20042;-40
2023/11/03 04:22:30;;;;;;;3.67;1.30;;;;;;;4.60;66.70;99313.59;5030462;28;20508;-39
2023/11/03 04:24:56;;;;;;;1.85;1.35;;;;;;;4.50;66.52;99308.59;5047312;28;20041;-40
2023/11/03 04:27:22;;;;;;;2.40;1.35;;;;;;;4.48;66.89;99298.31;5028566;28;20095;-40
2023/11/03 04:29:48;;;;;;;2.65;1.10;;;;;;;4.68;66.82;99314.28;5028735;28;20123;-39
2023/11/03 04:32:15;;;;;;;2.08;1.20;;;;;;;4.70;66.33;99316.84;5033799;28;20041;-40
2023/11/03 04:34:41;;;;;;;3.10;1.02;;;;;;;4.75;66.22;99320.19;5041740;28;20048;-40
2023/11/03 04:37:07;;;;;;;1.90;1.17;;;;;;;4.69;66.41;99320.28;5036731;28;20425;-40
2023/11/03 04:39:32;;;;;;;1.95;1.20;;;;;;;4.63;66.55;99320.38;5035336;28;20084;-40
2023/11/03 04:41:58;;;;;;;2.95;1.52;;;;;;;4.73;66.47;99315.94;5049713;28;20113;-40
2023/11/03 04:44:24;;;;;;;2.28;1.20;;;;;;;4.77;66.20;99325.28;5049046;28;20545;-40
2023/11/03 04:46:51;;;;;;;2.15;1.15;;;;;;;4.65;65.94;99319.50;5036168;28;20052;-39
2023/11/03 04:49:18;;;;;;;4.22;1.20;;;;;;;4.58;66.17;99320.47;5031600;28;20116;-39
2023/11/03 04:51:44;;;;;;;1.70;1.40;;;;;;;4.52;66.60;99327.44;5051999;28;20064;-40
2023/11/03 04:54:10;;;;;;;2.30;1.42;;;;;;;4.66;66.38;99333.19;5034994;28;20055;-39
2023/11/03 04:56:36;;;;;;;1.85;1.10;;;;;;;4.47;65.89;99300.91;5033670;28;20037;-42
2023/11/03 04:59:02;;;;;;;2.45;1.10;;;;;;;4.51;66.28;99308.56;5031027;28;20037;-39
2023/11/03 05:01:28;;;;;;;2.00;1.20;;;;;;;4.79;65.81;99337.28;5048994;28;20145;-40
2023/11/03 05:03:54;;;;;;;1.98;1.50;;;;;;;4.69;65.75;99346.88;5035177;28;20055;-40
2023/11/03 05:06:20;;;;;;;2.65;1.30;;;;;;;4.56;66.40;99354.81;5034270;28;20052;-40
2023/11/03 05:08:46;;;;;;;2.80;1.67;;;;;;;4.57;66.81;99354.81;5031740;28;20045;-40
2023/11/03 05:11:11;;;;;;;3.00;1.60;;;;;;;4.65;66.44;99360.69;5032718;28;20040;-40
2023/11/03 05:13:46;;;;;;;2.28;1.42;;;;;;;4.69;66.13;99362.34;5050363;28;20045;-40
2023/11/03 05:16:13;;;;;;;1.45;1.10;;;;;;;4.74;66.14;99369.13;5034667;28;20041;-40
2023/11/03 05:18:40;;;;;;;7.40;1.90;;;;;;;4.78;65.94;99374.22;5033282;28;20677;-40
2023/11/03 05:21:06;;;;;;;2.38;1.20;;;;;;;4.82;65.76;99378.44;5033366;28;20044;-40
2023/11/03 05:23:32;;;;;;;2.33;1.15;;;;;;;4.85;65.95;99382.69;5032059;28;20049;-40
2023/11/03 05:25:58;;;;;;;3.28;1.40;;;;;;;4.84;65.42;99381.00;5032393;28;20057;-40
2023/11/03 05:28:24;;;;;;;3.00;1.30;;;;;;;4.91;65.39;99375.72;5033925;28;20045;-40
2023/11/03 05:30:50;;;;;;;4.00;1.50;;;;;;;4.97;65.36;99355.00;5036989;28;20094;-40
2023/11/03 05:33:17;;;;;;;1.98;1.30;;;;;;;5.34;65.22;99375.00;5039764;28;20095;-40
2023/11/03 05:35:44;;;;;;;3.42;1.92;;;;;;;5.46;65.22;99383.31;5019750;28;20052;-39
2023/11/03 05:38:11;;;;;;;3.55;2.50;;;;;;;5.44;64.57;99385.06;5030963;28;20041;-40
2023/11/03 05:40:37;;;;;;;1.98;1.45;;;;;;;5.38;64.73;99374.03;5034061;28;20514;-40
2023/11/03 05:43:02;;;;;;;5.65;1.60;;;;;;;5.32;64.88;99381.88;5035192;28;20425;-40
2023/11/03 05:45:30;;;;;;;2.85;1.60;;;;;;;5.18;65.12;99384.72;5030987;28;20056;-40
2023/11/03 05:47:56;;;;;;;6.97;1.90;;;;;;;4.97;65.16;99346.44;5030170;28;20070;-40
2023/11/03 05:50:22;;;;;;;3.60;1.80;;;;;;;5.15;64.91;99381.31;5032166;28;20513;-40
2023/11/03 05:52:47;;;;;;;4.15;1.80;;;;;;;5.08;65.33;99393.44;5032746;28;20047;-40
2023/11/03 05:55:13;;;;;;;2.55;1.65;;;;;;;4.98;65.25;99391.91;5035737;28;20037;-39
2023/11/03 05:57:40;;;;;;;2.50;1.75;;;;;;;4.95;65.13;99403.13;5031438;28;20040;-39
2023/11/03 06:00:08;;;;;;;5.60;2.25;;;;;;;4.79;65.18;99359.63;5042791;28;20108;-41
2023/11/03 06:02:38;;;;;;;2.20;1.90;;;;;;;5.24;64.92;99394.88;5029833;28;20037;-40
2023/11/03 06:05:05;;;;;;;2.75;2.20;;;;;;;5.40;64.71;99398.91;5031377;28;20036;-40
2023/11/03 06:07:35;;;;;;;7.13;2.88;;;;;;;5.60;64.88;99397.72;5039024;28;20458;-40
2023/11/03 06:10:03;;;;;;;3.25;2.00;;;;;;;5.68;64.45;99404.41;5031642;28;20037;-40
2023/11/03 06:12:32;;;;;;;4.10;2.30;;;;;;;5.74;64.53;99398.28;5042596;28;20094;-40
2023/11/03 06:14:58;;;;;;;1.95;1.48;;;;;;;5.79;64.50;99404.19;5041067;28;20079;-40
2023/11/03 06:17:24;;;;;;;4.13;1.80;;;;;;;5.29;64.52;99395.66;5048755;28;20045;-39
2023/11/03 06:19:50;;;;;;;3.00;2.17;;;;;;;5.22;64.45;99417.28;5024945;28;20049;-39
2023/11/03 06:22:17;;;;;;;3.97;2.40;;;;;;;5.24;65.13;99412.94;5032704;28;20091;-40
2023/11/03 06:24:42;;;;;;;2.63;1.92;;;;;;;4.99;65.23;99370.44;5033699;28;20077;-41
2023/11/03 06:27:09;;;;;;;2.58;1.70;;;;;;;5.32;65.64;99415.38;5030044;28;20449;-41
2023/11/03 06:29:35;;;;;;;3.50;2.25;;;;;;;5.15;65.38;99399.38;5034764;28;20128;-40
2023/11/03 06:32:03;;;;;;;4.35;2.03;;;;;;;5.39;65.72;99409.25;5039099;28;20140;-39
2023/11/03 06:34:29;;;;;;;6.47;2.83;;;;;;;5.23;65.15;99390.63;5045888;28;20041;-41
2023/11/03 06:36:55;;;;;;;2.42;1.95;;;;;;;5.31;65.14;99375.88;5031630;28;20048;-40
2023/11/03 06:39:21;;;;;;;4.18;2.10;;;;;;;5.73;65.05;99415.47;5035648;28;20047;-40
2023/11/03 06:41:47;;;;;;;3.60;2.50;;;;;;;5.74;64.41;99416.34;5035727;28;20424;-39
2023/11/03 06:44:13;;;;;;;3.83;2.20;;;;;;;5.70;64.33;99427.59;5032913;28;20509;-39
2023/11/03 06:46:39;;;;;;;3.55;2.15;;;;;;;5.66;64.92;99423.34;5030578;28;20041;-41
2023/11/03 06:49:08;;;;;;;3.08;2.05;;;;;;;5.57;65.12;99441.56;5043320;28;20446;-40
2023/11/03 06:51:34;;;;;;;5.63;2.55;;;;;;;5.53;64.83;99439.06;5056300;28;20381;-40
2023/11/03 06:54:00;;;;;;;4.15;2.60;;;;;;;5.50;64.64;99441.69;5033630;28;20037;-40
2023/11/03 06:56:26;;;;;;;2.33;1.90;;;;;;;5.32;65.26;99411.09;5032368;28;20079;-38
2023/11/03 06:58:52;;;;;;;3.20;2.30;;;;;;;5.66;64.79;99449.13;5025394;28;20072;-40
2023/11/03 07:01:18;;;;;;;4.00;1.90;;;;;;;5.62;64.96;99442.34;5031907;28;20052;-40
2023/11/03 07:03:43;;;;;;;3.13;2.13;;;;;;;5.51;64.93;99443.38;5030541;28;20508;-41
2023/11/03 07:06:09;;;;;;;6.43;2.35;;;;;;;5.51;65.11;99442.53;5035290;28;20040;-39
2023/11/03 07:08:36;;;;;;;3.55;2.55;;;;;;;5.61;65.16;99445.78;5032311;28;20132;-41
2023/11/03 07:11:03;;;;;;;1.58;1.17;;;;;;;5.61;64.48;99456.09;5046950;28;20082;-40
2023/11/03 07:13:29;;;;;;;4.25;2.47;;;;;;;5.23;64.59;99416.41;5030357;28;20039;-40
2023/11/03 07:15:56;;;;;;;3.33;2.40;;;;;;;5.21;64.88;99419.88;5032326;28;20040;-40
2023/11/03 07:18:22;;;;;;;8.18;2.53;;;;;;;5.39;64.66;99445.34;5046696;28;20041;-40
2023/11/03 07:20:48;;;;;;;5.32;2.20;;;;;;;5.43;65.15;99447.84;5049156;28;20467;-41
2023/11/03 07:23:15;;;;;;;4.22;2.70;;;;;;;5.46;65.06;99465.81;5054874;28;20079;-39
2023/11/03 07:25:42;;;;;;;5.15;2.65;;;;;;;5.15;65.15;99407.94;5040271;28;20060;-42
2023/11/03 07:28:08;;;;;;;3.97;2.60;;;;;;;5.65;64.56;99468.09;5049407;28;20052;-39
2023/11/03 07:30:34;;;;;;;3.33;2.47;;;;;;;5.58;64.56;99466.50;5028983;28;20045;-41
2023/11/03 07:33:00;;;;;;;5.13;2.40;;;;;;;5.61;64.62;99469.00;4993069;28;20543;-40
2023/11/03 07:35:27;;;;;;;3.70;2.30;;;;;;;5.42;64.26;99450.44;5045115;28;20040;-42
2023/11/03 07:37:53;;;;;;;3.70;2.60;;;;;;;5.64;64.75;99474.97;5028335;28;20041;-41
2023/11/03 07:40:19;;;;;;;6.88;2.40;;;;;;;5.72;64.47;99474.81;5043270;28;20037;-41
2023/11/03 07:42:46;;;;;;;5.38;2.33;;;;;;;5.79;64.20;99479.00;5042856;28;20508;-40
2023/11/03 07:45:12;;;;;;;2.95;2.47;;;;;;;5.50;64.43;99449.41;5040353;28;20083;-42
2023/11/03 07:47:41;;;;;;;4.78;2.40;;;;;;;5.90;63.87;99493.44;5045709;28;20047;-41
2023/11/03 07:50:08;;;;;;;8.25;2.53;;;;;;;5.65;63.91;99448.31;5037004;28;20037;-41
2023/11/03 07:52:33;;;;;;;4.03;2.33;;;;;;;6.15;63.33;99500.72;5046561;28;20041;-39
2023/11/03 07:55:01;;;;;;;3.65;2.30;;;;;;;6.37;63.25;99500.25;5032161;28;20044;-41
2023/11/03 07:57:32;;;;;;;7.10;2.53;;;;;;;6.41;62.86;99501.03;5040772;28;20083;-39
2023/11/03 08:00:00;;;;;;;6.10;3.00;;;;;;;6.47;62.04;99506.09;5047338;28;20039;-39
2023/11/03 08:02:26;;;;;;;5.53;3.05;;;;;;;6.31;62.30;99505.53;5050073;28;20144;-41
2023/11/03 08:04:51;;;;;;;5.82;2.70;;;;;;;6.22;62.68;99504.88;5047429;28;20048;-41
2023/11/03 08:07:17;;;;;;;5.65;3.10;;;;;;;6.20;62.78;99512.66;5046863;28;20499;-43
2023/11/03 08:09:43;;;;;;;8.63;2.63;;;;;;;5.88;62.70;99460.78;5035129;28;20541;-46
2023/11/03 08:12:10;;;;;;;9.93;2.97;;;;;;;6.11;62.81;99487.03;5044313;28;20614;-41
2023/11/03 08:14:36;;;;;;;4.45;2.72;;;;;;;6.56;62.23;99523.13;5051420;28;20049;-41
2023/11/03 08:17:02;;;;;;;5.82;2.65;;;;;;;6.74;62.18;99515.00;5034131;28;20045;-41
2023/11/03 08:19:29;;;;;;;3.17;2.28;;;;;;;6.87;62.27;99519.00;5044812;28;20100;-41
2023/11/03 08:21:55;;;;;;;5.90;2.58;;;;;;;7.02;61.87;99533.31;5039525;28;20052;-40
2023/11/03 08:24:20;;;;;;;3.97;2.50;;;;;;;6.89;61.89;99530.16;5032507;28;20248;-40
2023/11/03 08:26:46;;;;;;;6.82;3.00;;;;;;;6.96;61.36;99534.28;5029701;28;20033;-40
2023/11/03 08:29:12;;;;;;;5.32;2.60;;;;;;;6.74;61.31;99535.66;5052825;28;20056;-41
2023/11/03 08:31:38;;;;;;;5.32;2.47;;;;;;;6.74;61.47;99531.34;5036394;28;20501;-41
2023/11/03 08:34:05;;;;;;;3.00;2.50;;;;;;;6.72;61.40;99535.69;5034220;28;20141;-42
2023/11/03 08:36:31;;;;;;;4.95;2.70;;;;;;;6.53;62.03;99531.78;5034088;28;20097;-41
2023/11/03 08:38:58;;;;;;;3.72;2.50;;;;;;;6.37;61.90;99504.56;5039184;28;20045;-41
2023/11/03 08:41:25;;;;;;;5.95;2.92;;;;;;;6.62;61.91;99525.56;5034015;28;20145;-42
2023/11/03 08:43:51;;;;;;;7.15;2.40;;;;;;;6.77;61.95;99533.00;5042155;28;20064;-41
2023/11/03 08:46:17;;;;;;;3.28;2.40;;;;;;;6.94;61.42;99524.88;5052740;28;20037;-48
2023/11/03 08:48:45;;;;;;;4.95;2.78;;;;;;;6.93;61.09;99525.75;5032341;28;20041;-41
2023/11/03 08:51:11;;;;;;;5.10;2.92;;;;;;;6.83;61.65;99525.13;5034587;28;20036;-40
2023/11/03 08:53:38;;;;;;;14.52;3.30;;;;;;;6.80;61.16;99513.09;5036055;28;20044;-41
2023/11/03 08:56:04;;;;;;;3.85;2.67;;;;;;;6.90;60.97;99528.44;5036547;28;20036;-42
2023/11/03 08:58:31;;;;;;;4.72;2.92;;;;;;;6.94;61.02;99536.06;5033243;28;20497;-40
2023/11/03 09:00:57;;;;;;;6.57;2.78;;;;;;;6.65;61.07;99535.81;5037925;28;20049;-40
2023/11/03 09:03:22;;;;;;;7.75;2.67;;;;;;;6.55;61.70;99540.34;5049906;28;20038;-40
2023/11/03 09:05:48;;;;;;;8.20;3.20;;;;;;;6.34;61.95;99520.09;5051057;28;20492;-41
2023/11/03 09:08:15;;;;;;;4.65;2.50;;;;;;;6.52;61.94;99539.56;5039282;28;20048;-41
2023/11/03 09:10:41;;;;;;;5.97;2.50;;;;;;;6.43;62.23;99548.34;5052223;28;20090;-40
2023/11/03 09:13:07;;;;;;;4.15;2.55;;;;;;;6.35;61.77;99511.50;5041184;28;20533;-39
2023/11/03 09:15:34;;;;;;;3.95;2.45;;;;;;;6.58;61.77;99552.34;5039063;28;20037;-39
2023/11/03 09:18:00;;;;;;;4.18;2.50;;;;;;;6.67;61.85;99539.25;5042497;28;20090;-47
2023/11/03 09:20:26;;;;;;;6.70;2.35;;;;;;;6.60;61.77;99511.81;5028280;28;20050;-41
2023/11/03 09:22:51;;;;;;;5.68;2.45;;;;;;;6.77;61.43;99515.75;5030872;28;20076;-42
2023/11/03 09:25:18;;;;;;;7.47;2.95;;;;;;;7.07;61.48;99536.63;5035343;28;20037;-41
2023/11/03 09:27:47;;;;;;;9.15;2.83;;;;;;;7.19;61.42;99538.94;5051367;28;20186;-40
2023/11/03 09:30:15;;;;;;;6.78;2.83;;;;;;;7.26;61.13;99543.09;5070816;28;20037;-40
2023/11/03 09:32:42;;;;;;;13.73;3.10;;;;;;;7.21;60.78;99543.22;5056550;28;20044;-41
2023/11/03 09:35:09;;;;;;;7.00;3.00;;;;;;;7.27;61.03;99543.97;5054840;28;20032;-41
2023/11/03 09:37:35;;;;;;;5.93;2.65;;;;;;;7.31;60.81;99554.19;5051517;28;20140;-40
2023/11/03 09:40:02;;;;;;;7.38;2.47;;;;;;;6.80;60.93;99515.69;5046131;28;20043;-40
2023/11/03 09:42:30;;;;;;;5.10;3.05;;;;;;;6.83;60.90;99525.13;5051505;28;20045;-40
2023/11/03 09:44:58;;;;;;;4.85;2.88;;;;;;;6.89;60.51;99525.00;5053780;28;20072;-41
2023/11/03 09:47:25;;;;;;;7.75;3.08;;;;;;;7.03;60.84;99560.84;5043701;28;20128;-44
2023/11/03 09:49:58;;;;;;;5.93;2.72;;;;;;;6.93;60.96;99562.78;5043405;28;20151;-40
2023/11/03 09:52:24;;;;;;;6.75;2.72;;;;;;;6.89;60.99;99562.91;5047372;28;20037;-40
2023/11/03 09:54:51;;;;;;;4.28;2.50;;;;;;;6.88;60.60;99537.94;5039083;28;20052;-38
2023/11/03 09:57:18;;;;;;;4.75;2.60;;;;;;;6.70;60.80;99540.00;5029558;28;20041;-40
2023/11/03 09:59:44;;;;;;;7.45;2.67;;;;;;;6.81;60.57;99578.53;5047932;28;20456;-40
2023/11/03 10:02:18;;;;;;;8.20;3.10;;;;;;;6.60;61.07;99548.84;5053300;28;20508;-40
2023/11/03 10:04:45;;;;;;;5.45;2.80;;;;;;;6.72;60.82;99587.34;5056861;28;20040;-41
2023/11/03 10:07:12;;;;;;;4.82;3.17;;;;;;;6.69;61.36;99599.50;5041787;28;20041;-40
2023/11/03 10:09:44;;;;;;;4.50;2.65;;;;;;;6.80;61.01;99597.53;5051904;28;20678;-42
2023/11/03 10:12:11;;;;;;;6.05;2.70;;;;;;;6.79;61.08;99601.00;5038699;28;20214;-40
2023/11/03 10:14:39;;;;;;;4.10;2.70;;;;;;;6.80;61.19;99605.28;5051960;28;20535;-42
2023/11/03 10:17:08;;;;;;;6.40;3.15;;;;;;;6.90;61.25;99603.38;5050362;28;20071;-43
2023/11/03 10:19:35;;;;;;;4.85;2.70;;;;;;;6.62;60.90;99570.34;5047433;28;20052;-42
2023/11/03 10:22:08;;;;;;;5.10;2.65;;;;;;;6.85;60.70;99615.53;5041346;28;20056;-41
2023/11/03 10:24:36;;;;;;;6.13;2.90;;;;;;;6.69;61.11;99612.41;5025032;28;20445;-41
2023/11/03 10:27:03;;;;;;;4.75;2.95;;;;;;;6.51;61.13;99574.84;5043689;28;20128;-41
2023/11/03 10:29:30;;;;;;;6.68;3.40;;;;;;;6.94;60.64;99605.84;5043171;28;20048;-41
2023/11/03 10:31:57;;;;;;;5.63;2.83;;;;;;;7.17;60.67;99607.97;5036439;28;20070;-42
2023/11/03 10:34:28;;;;;;;9.77;3.72;;;;;;;7.37;60.22;99610.09;5055121;28;20048;-40
2023/11/03 10:36:56;;;;;;;4.93;3.13;;;;;;;7.49;59.67;99609.78;5016027;28;20159;-39
2023/11/03 10:39:24;;;;;;;4.60;3.17;;;;;;;7.35;59.36;99607.53;5045713;28;20032;-39
2023/11/03 10:41:51;;;;;;;6.00;3.28;;;;;;;7.37;59.07;99607.50;5051951;28;20079;-40
2023/11/03 10:44:19;;;;;;;5.22;3.05;;;;;;;7.23;59.01;99600.03;5046034;28;20052;-40
2023/11/03 10:46:51;;;;;;;3.88;2.80;;;;;;;7.06;58.98;99591.81;5050060;28;20158;-40
2023/11/03 10:49:29;;;;;;;7.72;3.53;;;;;;;7.16;58.72;99593.31;5049002;28;20072;-40
2023/11/03 10:52:11;;;;;;;7.28;3.13;;;;;;;7.26;58.57;99591.38;5038380;28;20099;-40
2023/11/03 10:54:41;;;;;;;4.78;3.20;;;;;;;7.00;58.41;99597.97;5054367;28;20060;-41
2023/11/03 10:57:10;;;;;;;7.15;3.63;;;;;;;6.83;58.97;99600.03;5034756;28;20428;-40
2023/11/03 10:59:39;;;;;;;6.70;3.60;;;;;;;6.87;58.45;99593.94;5049385;28;20110;-41
2023/11/03 11:02:19;;;;;;;6.25;3.15;;;;;;;6.92;59.01;99592.09;5045690;28;20071;-40
2023/11/03 11:05:05;;;;;;;5.03;3.20;;;;;;;7.15;58.76;99591.63;5045093;28;20475;-39
2023/11/03 11:07:33;;;;;;;6.55;3.88;;;;;;;7.11;58.56;99596.00;5062913;28;20747;-40
2023/11/03 11:09:59;;;;;;;5.43;3.65;;;;;;;6.92;58.71;99592.09;5035771;28;20048;-41
2023/11/03 11:12:45;;;;;;;9.27;4.07;;;;;;;6.81;58.94;99599.22;5059014;28;20113;-42
2023/11/03 11:15:19;;;;;;;8.93;4.20;;;;;;;6.71;59.12;99603.72;5039643;28;20438;-40
2023/11/03 11:17:47;;;;;;;6.30;3.63;;;;;;;6.66;59.61;99602.97;5066840;28;20098;-41
2023/11/03 11:20:17;;;;;;;9.47;3.93;;;;;;;6.79;59.63;99595.84;5042519;28;20523;-41
2023/11/03 11:22:53;;;;;;;7.90;4.22;;;;;;;6.84;59.50;99601.75;5043586;28;20347;-41
2023/11/03 11:25:20;;;;;;;6.00;3.80;;;;;;;7.00;59.22;99610.03;5035136;28;20041;-41
2023/11/03 11:27:49;;;;;;;6.95;4.28;;;;;;;7.13;59.20;99601.13;5035759;28;20048;-40
2023/11/03 11:30:17;;;;;;;8.68;4.45;;;;;;;7.19;58.79;99598.41;5040539;28;20080;-40
2023/11/03 11:32:51;;;;;;;6.57;4.82;;;;;;;7.01;58.78;99614.34;5033830;28;20056;-40
2023/11/03 11:35:20;;;;;;;6.25;4.45;;;;;;;6.87;59.39;99604.25;5044656;28;20037;-40
2023/11/03 11:37:46;;;;;;;6.68;3.80;;;;;;;6.93;59.34;99613.63;5048274;28;20404;-41
2023/11/03 11:40:13;;;;;;;7.25;4.13;;;;;;;6.96;58.94;99622.16;5045645;28;20044;-42